createdAt,value
2019-01-24T00:01:07.114Z,94.70
2019-01-24T00:03:36.670Z,94.90
2019-01-24T00:06:06.083Z,94.60
2019-01-24T00:08:35.840Z,94.80
2019-01-24T00:11:05.375Z,94.80
2019-01-24T00:13:34.837Z,94.70
2019-01-24T00:16:04.318Z,94.60
2019-01-24T00:18:33.733Z,93.80
2019-01-24T00:21:02.994Z,94.20
2019-01-24T00:23:32.380Z,94.20
2019-01-24T00:26:01.672Z,94.00
2019-01-24T00:28:31.003Z,93.90
2019-01-24T00:31:00.361Z,94.00
2019-01-24T00:33:29.681Z,94.20
2019-01-24T00:35:59.335Z,94.20
2019-01-24T00:38:28.717Z,94.40
2019-01-24T00:40:58.016Z,94.20
2019-01-24T00:43:27.723Z,94.20
2019-01-24T00:45:57.275Z,94.40
2019-01-24T00:48:26.863Z,94.30
2019-01-24T00:50:56.246Z,94.40
2019-01-24T00:53:25.874Z,94.70
2019-01-24T00:55:55.233Z,94.70
2019-01-24T00:58:24.606Z,94.60
2019-01-24T01:00:54.191Z,94.60
2019-01-24T01:03:23.756Z,94.30
2019-01-24T01:05:53.075Z,95.10
2019-01-24T01:08:22.691Z,94.50
2019-01-24T01:10:52.380Z,94.60
2019-01-24T01:13:21.659Z,94.60
2019-01-24T01:15:51.317Z,94.60
2019-01-24T01:18:20.870Z,94.80
2019-01-24T01:20:50.507Z,94.50
2019-01-24T01:23:19.789Z,94.70
2019-01-24T01:25:49.079Z,94.60
2019-01-24T01:28:18.450Z,94.80
2019-01-24T01:30:48.031Z,95.00
2019-01-24T01:33:17.635Z,94.90
2019-01-24T01:35:46.977Z,94.50
2019-01-24T01:38:17.482Z,94.30
2019-01-24T01:40:46.907Z,94.40
2019-01-24T01:43:16.274Z,94.70
2019-01-24T01:45:45.552Z,94.50
2019-01-24T01:48:15.493Z,94.80
2019-01-24T01:50:44.810Z,94.90
2019-01-24T01:53:14.118Z,94.90
2019-01-24T01:55:43.396Z,94.60
2019-01-24T01:58:12.682Z,94.80
2019-01-24T02:00:42.005Z,94.80
2019-01-24T02:03:11.602Z,94.90
2019-01-24T02:05:40.871Z,94.80
2019-01-24T02:08:10.179Z,95.00
2019-01-24T02:10:39.803Z,95.00
2019-01-24T02:13:10.311Z,94.80
2019-01-24T02:15:39.911Z,94.90
2019-01-24T02:18:09.242Z,94.70
2019-01-24T02:20:38.523Z,94.90
2019-01-24T02:23:07.842Z,95.00
2019-01-24T02:25:37.751Z,94.60
2019-01-24T02:28:07.146Z,94.80
2019-01-24T02:30:36.440Z,95.00
2019-01-24T02:33:05.724Z,94.80
2019-01-24T02:35:35.294Z,95.20
2019-01-24T02:38:04.648Z,95.40
2019-01-24T02:40:33.952Z,96.30
2019-01-24T02:43:03.350Z,96.50
2019-01-24T02:45:33.183Z,96.80
2019-01-24T02:48:02.759Z,96.90
2019-01-24T02:50:32.050Z,97.00
2019-01-24T02:53:01.328Z,97.20
2019-01-24T02:55:31.802Z,97.20
2019-01-24T02:58:01.094Z,97.20
2019-01-24T03:00:30.396Z,96.90
2019-01-24T03:02:59.671Z,97.30
2019-01-24T03:05:29.609Z,97.50
2019-01-24T03:07:58.873Z,97.40
2019-01-24T03:10:28.528Z,97.30
2019-01-24T03:12:57.789Z,97.40
2019-01-24T03:15:27.105Z,97.40
2019-01-24T03:17:56.648Z,97.40
2019-01-24T03:20:25.945Z,97.40
2019-01-24T03:22:55.228Z,97.50
2019-01-24T03:25:24.860Z,97.40
2019-01-24T03:27:54.131Z,97.30
2019-01-24T03:30:23.557Z,97.30
2019-01-24T03:32:52.849Z,97.30
2019-01-24T03:35:26.954Z,97.20
2019-01-24T03:37:56.348Z,97.00
2019-01-24T03:40:25.696Z,97.00
2019-01-24T03:42:55.013Z,97.20
2019-01-24T03:45:24.361Z,97.10
2019-01-24T03:47:53.655Z,97.20
2019-01-24T03:50:23.318Z,97.10
2019-01-24T03:52:53.165Z,97.50
2019-01-24T03:55:22.896Z,97.10
2019-01-24T03:57:52.190Z,97.30
2019-01-24T04:00:23.279Z,97.30
2019-01-24T04:02:52.826Z,97.00
2019-01-24T04:05:22.402Z,97.30
2019-01-24T04:07:51.707Z,97.10
2019-01-24T04:10:21.892Z,96.90
2019-01-24T04:12:51.231Z,96.70
2019-01-24T04:15:22.530Z,96.50
2019-01-24T04:17:52.014Z,96.50
2019-01-24T04:20:21.276Z,96.40
2019-01-24T04:22:50.577Z,96.90
2019-01-24T04:25:20.338Z,96.30
2019-01-24T04:27:50.009Z,96.40
2019-01-24T04:30:21.514Z,96.50
2019-01-24T04:32:50.915Z,96.60
2019-01-24T04:35:20.439Z,97.00
2019-01-24T04:37:50.114Z,96.70
2019-01-24T04:40:20.173Z,96.90
2019-01-24T04:42:50.030Z,97.60
2019-01-24T04:45:19.730Z,97.40
2019-01-24T04:47:49.294Z,97.20
2019-01-24T04:50:19.501Z,97.10
2019-01-24T04:52:48.777Z,97.60
2019-01-24T04:55:19.837Z,97.50
2019-01-24T04:57:49.375Z,97.40
2019-01-24T05:00:21.516Z,96.90
2019-01-24T05:02:50.836Z,96.70
2019-01-24T05:05:27.211Z,96.80
2019-01-24T05:07:51.433Z,96.80
2019-01-24T05:10:20.752Z,96.90
2019-01-24T05:12:50.056Z,96.90
2019-01-24T05:15:19.409Z,96.70
2019-01-24T05:17:48.696Z,96.70
2019-01-24T05:20:17.983Z,96.80
2019-01-24T05:22:47.247Z,96.70
2019-01-24T05:25:17.596Z,96.70
2019-01-24T05:27:46.867Z,97.10
2019-01-24T05:30:19.580Z,96.60
2019-01-24T05:32:48.939Z,96.30
2019-01-24T05:35:18.975Z,96.60
2019-01-24T05:37:48.237Z,96.80
2019-01-24T05:40:17.544Z,96.90
2019-01-24T05:42:46.839Z,96.70
2019-01-24T05:45:16.297Z,96.90
2019-01-24T05:47:45.567Z,96.70
2019-01-24T05:50:14.873Z,96.70
2019-01-24T05:52:44.560Z,96.60
2019-01-24T05:55:14.071Z,97.00
2019-01-24T05:57:43.641Z,96.60
2019-01-24T06:00:18.418Z,96.80
2019-01-24T06:02:47.686Z,96.90
2019-01-24T06:05:17.151Z,97.00
2019-01-24T06:07:46.682Z,97.10
2019-01-24T06:10:16.240Z,96.70
2019-01-24T06:12:45.823Z,96.80
2019-01-24T06:15:16.256Z,96.50
2019-01-24T06:17:45.547Z,97.00
2019-01-24T06:20:15.241Z,96.80
2019-01-24T06:22:44.562Z,96.90
2019-01-24T06:25:14.258Z,96.60
2019-01-24T06:27:43.987Z,96.60
2019-01-24T06:30:16.167Z,96.90
2019-01-24T06:32:45.757Z,96.60
2019-01-24T06:35:15.040Z,96.70
2019-01-24T06:37:44.660Z,96.80
2019-01-24T06:40:14.771Z,96.40
2019-01-24T06:42:44.602Z,96.60
2019-01-24T06:45:16.530Z,96.70
2019-01-24T06:47:46.256Z,96.70
2019-01-24T06:50:16.345Z,96.30
2019-01-24T06:52:45.703Z,96.60
2019-01-24T06:55:23.978Z,96.50
2019-01-24T06:57:53.599Z,96.30
2019-01-24T07:00:22.875Z,96.80
2019-01-24T07:02:52.134Z,96.40
2019-01-24T07:05:21.423Z,96.30
2019-01-24T07:07:50.943Z,96.70
2019-01-24T07:10:21.234Z,96.40
2019-01-24T07:12:50.506Z,96.60
2019-01-24T07:15:21.707Z,96.30
2019-01-24T07:17:51.263Z,96.70
2019-01-24T07:20:20.651Z,96.40
2019-01-24T07:22:49.970Z,96.60
2019-01-24T07:25:21.313Z,96.20
2019-01-24T07:27:50.625Z,96.20
2019-01-24T07:30:20.211Z,96.20
2019-01-24T07:32:49.582Z,96.40
2019-01-24T07:35:19.001Z,96.30
2019-01-24T07:37:48.775Z,96.80
2019-01-24T07:40:18.535Z,96.50
2019-01-24T07:42:49.115Z,96.00
2019-01-24T07:45:24.135Z,96.40
2019-01-24T07:47:53.438Z,96.10
2019-01-24T07:50:23.421Z,96.10
2019-01-24T07:52:53.059Z,95.90
2019-01-24T07:55:22.505Z,95.90
2019-01-24T07:57:51.797Z,96.10
2019-01-24T08:00:23.359Z,96.30
2019-01-24T08:02:53.091Z,96.30
2019-01-24T08:05:22.575Z,95.90
2019-01-24T08:07:51.860Z,95.90
2019-01-24T08:10:21.679Z,95.90
2019-01-24T08:12:50.967Z,96.40
2019-01-24T08:15:21.177Z,96.50
2019-01-24T08:17:51.044Z,96.50
2019-01-24T08:20:22.244Z,95.90
2019-01-24T08:22:51.526Z,96.00
2019-01-24T08:25:21.139Z,96.00
2019-01-24T08:27:50.798Z,95.90
2019-01-24T08:30:22.914Z,96.00
2019-01-24T08:32:52.186Z,95.90
2019-01-24T08:35:21.535Z,96.10
2019-01-24T08:37:50.898Z,95.80
2019-01-24T08:40:20.231Z,96.00
2019-01-24T08:42:50.719Z,96.40
2019-01-24T08:45:20.171Z,96.40
2019-01-24T08:47:49.862Z,96.30
2019-01-24T08:50:20.845Z,96.40
2019-01-24T08:52:50.094Z,96.50
2019-01-24T08:55:21.937Z,96.60
2019-01-24T08:57:51.306Z,96.60
2019-01-24T09:00:20.967Z,96.60
2019-01-24T09:02:50.735Z,96.80
2019-01-24T09:05:20.374Z,96.70
2019-01-24T09:07:50.176Z,96.80
2019-01-24T09:10:22.271Z,96.60
2019-01-24T09:12:51.931Z,96.80
2019-01-24T09:15:21.290Z,97.00
2019-01-24T09:17:50.886Z,96.90
2019-01-24T09:20:20.264Z,97.30
2019-01-24T09:22:55.182Z,97.20
2019-01-24T09:25:20.562Z,97.30
2019-01-24T09:27:49.867Z,97.10
2019-01-24T09:30:21.511Z,97.60
2019-01-24T09:32:50.910Z,97.30
2019-01-24T09:35:20.254Z,97.60
2019-01-24T09:37:49.535Z,97.40
2019-01-24T09:40:18.971Z,97.50
2019-01-24T09:42:48.647Z,97.60
2019-01-24T09:45:23.290Z,98.00
2019-01-24T09:47:53.791Z,99.20
2019-01-24T09:50:24.256Z,98.10
2019-01-24T09:52:53.601Z,98.40
2019-01-24T09:55:23.040Z,98.30
2019-01-24T09:57:52.871Z,98.20
2019-01-24T10:00:27.855Z,98.90
2019-01-24T10:02:58.012Z,98.50
2019-01-24T10:05:27.303Z,98.80
2019-01-24T10:07:56.693Z,99.40
2019-01-24T10:10:26.315Z,98.80
2019-01-24T10:12:56.477Z,99.40
2019-01-24T10:15:25.800Z,98.50
2019-01-24T10:17:55.125Z,99.00
2019-01-24T10:20:26.095Z,99.90
2019-01-24T10:22:55.775Z,99.10
2019-01-24T10:25:30.765Z,99.10
2019-01-24T10:28:00.059Z,98.90
2019-01-24T10:30:29.639Z,98.10
2019-01-24T10:32:59.457Z,97.40
2019-01-24T10:35:29.054Z,97.50
2019-01-24T10:37:58.638Z,97.20
2019-01-24T10:40:29.811Z,97.20
2019-01-24T10:42:59.183Z,97.00
2019-01-24T10:45:28.468Z,97.70
2019-01-24T10:47:58.202Z,97.50
2019-01-24T10:50:28.240Z,97.40
2019-01-24T10:52:57.840Z,97.70
2019-01-24T10:55:28.187Z,97.30
2019-01-24T10:58:00.034Z,97.20
2019-01-24T11:00:33.116Z,97.30
2019-01-24T11:03:03.931Z,97.90
2019-01-24T11:05:33.470Z,97.40
2019-01-24T11:08:03.251Z,97.70
2019-01-24T11:10:32.988Z,97.80
2019-01-24T11:13:02.361Z,97.70
2019-01-24T11:15:31.717Z,97.60
2019-01-24T11:18:01.016Z,97.20
2019-01-24T11:20:30.293Z,96.90
2019-01-24T11:22:59.865Z,97.30
2019-01-24T11:25:29.406Z,97.80
2019-01-24T11:27:58.696Z,97.90
2019-01-24T11:30:29.266Z,97.70
2019-01-24T11:32:58.841Z,97.80
2019-01-24T11:35:32.726Z,97.80
2019-01-24T11:38:02.085Z,97.80
2019-01-24T11:40:31.829Z,98.20
2019-01-24T11:43:01.508Z,97.50
2019-01-24T11:45:33.475Z,97.70
2019-01-24T11:48:02.739Z,97.80
2019-01-24T11:50:32.434Z,97.10
2019-01-24T11:53:01.698Z,97.10
2019-01-24T11:55:31.039Z,97.30
2019-01-24T11:58:00.589Z,96.70
2019-01-24T12:00:34.444Z,96.30
2019-01-24T12:03:03.967Z,96.90
2019-01-24T12:05:33.779Z,97.10
2019-01-24T12:08:03.143Z,97.80
2019-01-24T12:10:32.788Z,97.80
2019-01-24T12:13:02.469Z,98.30
2019-01-24T12:15:31.868Z,98.20
2019-01-24T12:18:01.461Z,98.50
2019-01-24T12:20:30.846Z,99.50
2019-01-24T12:23:00.220Z,99.90
2019-01-24T12:25:29.611Z,99.40
2019-01-24T12:27:58.911Z,98.90
2019-01-24T12:30:30.254Z,99.10
2019-01-24T12:32:59.756Z,98.40
2019-01-24T12:35:29.552Z,98.70
2019-01-24T12:37:59.267Z,98.50
2019-01-24T12:40:29.006Z,98.20
2019-01-24T12:42:59.477Z,96.90
2019-01-24T12:45:31.010Z,96.90
2019-01-24T12:48:00.622Z,98.00
2019-01-24T12:50:29.906Z,98.50
2019-01-24T12:52:59.300Z,97.50
2019-01-24T12:55:28.873Z,97.50
2019-01-24T12:57:58.185Z,97.20
2019-01-24T13:00:29.932Z,96.90
2019-01-24T13:02:59.220Z,96.40
2019-01-24T13:05:28.644Z,96.50
2019-01-24T13:07:58.024Z,95.40
2019-01-24T13:10:28.197Z,95.40
2019-01-24T13:12:58.107Z,95.80
2019-01-24T13:15:30.069Z,95.40
2019-01-24T13:17:59.437Z,95.70
2019-01-24T13:20:29.026Z,95.00
2019-01-24T13:22:58.427Z,95.20
2019-01-24T13:25:32.799Z,95.30
2019-01-24T13:28:02.077Z,94.60
2019-01-24T13:30:33.115Z,95.20
2019-01-24T13:33:02.806Z,95.00
2019-01-24T13:35:32.392Z,95.30
2019-01-24T13:38:01.994Z,95.60
2019-01-24T13:40:32.542Z,96.30
2019-01-24T13:43:03.043Z,96.60
2019-01-24T13:45:35.074Z,96.90
2019-01-24T13:48:04.474Z,96.70
2019-01-24T13:50:34.033Z,96.10
2019-01-24T13:53:03.387Z,95.40
2019-01-24T13:55:32.654Z,95.10
2019-01-24T13:58:02.200Z,95.70
2019-01-24T14:00:33.638Z,94.70
2019-01-24T14:03:18.197Z,94.70
2019-01-24T14:05:47.488Z,95.60
2019-01-24T14:08:16.803Z,95.90
2019-01-24T14:10:46.071Z,95.70
2019-01-24T14:13:15.478Z,95.20
2019-01-24T14:15:44.746Z,94.90
2019-01-24T14:18:14.046Z,95.00
2019-01-24T14:20:43.401Z,95.00
2019-01-24T14:23:12.691Z,94.50
2019-01-24T14:25:41.963Z,93.50
2019-01-24T14:28:11.256Z,93.80
2019-01-24T14:30:40.544Z,93.70
2019-01-24T14:33:09.867Z,92.90
2019-01-24T14:35:39.148Z,93.60
2019-01-24T14:38:09.062Z,94.40
2019-01-24T14:40:38.347Z,93.50
2019-01-24T14:43:08.130Z,92.90
2019-01-24T14:45:37.390Z,93.70
2019-01-24T14:48:07.565Z,93.00
2019-01-24T14:50:38.489Z,91.80
2019-01-24T14:53:08.638Z,91.80
2019-01-24T14:55:37.931Z,91.50
2019-01-24T14:58:07.241Z,91.10
2019-01-24T15:00:42.833Z,91.00
2019-01-24T15:03:12.505Z,91.00
2019-01-24T15:05:42.182Z,90.20
2019-01-24T15:08:11.626Z,90.00
2019-01-24T15:10:40.962Z,89.00
2019-01-24T15:13:10.239Z,90.00
2019-01-24T15:15:39.566Z,90.20
2019-01-24T15:18:08.924Z,90.50
2019-01-24T15:20:38.558Z,91.10
2019-01-24T15:23:07.869Z,91.10
2019-01-24T15:25:37.187Z,91.10
2019-01-24T15:28:06.759Z,90.40
2019-01-24T15:30:36.441Z,91.80
2019-01-24T15:33:08.539Z,92.30
2019-01-24T15:35:37.839Z,93.20
2019-01-24T15:38:07.106Z,92.70
2019-01-24T15:40:36.364Z,93.20
2019-01-24T15:43:06.814Z,93.30
2019-01-24T15:45:36.475Z,92.60
2019-01-24T15:48:06.805Z,93.20
2019-01-24T15:50:36.127Z,93.60
2019-01-24T15:53:05.737Z,94.00
2019-01-24T15:55:35.049Z,94.10
2019-01-24T15:58:04.849Z,94.10
2019-01-24T16:00:34.614Z,94.40
2019-01-24T16:03:03.922Z,94.20
2019-01-24T16:05:33.190Z,93.80
2019-01-24T16:08:02.519Z,93.60
2019-01-24T16:10:31.845Z,94.10
2019-01-24T16:13:01.180Z,93.90
2019-01-24T16:15:35.302Z,93.60
2019-01-24T16:18:07.368Z,93.60
2019-01-24T16:20:37.202Z,92.90
2019-01-24T16:23:06.515Z,93.60
2019-01-24T16:25:35.940Z,93.90
2019-01-24T16:28:05.426Z,94.10
2019-01-24T16:30:35.303Z,94.40
2019-01-24T16:33:06.811Z,94.30
2019-01-24T16:35:36.778Z,94.00
2019-01-24T16:38:09.603Z,94.10
2019-01-24T16:40:37.456Z,93.90
2019-01-24T16:43:07.371Z,94.30
2019-01-24T16:45:36.647Z,94.20
2019-01-24T16:48:07.183Z,93.60
2019-01-24T16:50:36.473Z,94.00
2019-01-24T16:53:05.768Z,94.70
2019-01-24T16:55:35.037Z,94.30
2019-01-24T16:58:04.447Z,95.00
2019-01-24T17:00:40.196Z,95.30
2019-01-24T17:03:10.954Z,95.00
2019-01-24T17:05:41.026Z,94.90
2019-01-24T17:08:16.508Z,95.10
2019-01-24T17:10:42.156Z,95.00
2019-01-24T17:13:11.479Z,94.80
2019-01-24T17:15:42.184Z,95.00
2019-01-24T17:18:11.563Z,95.20
2019-01-24T17:20:40.835Z,95.10
2019-01-24T17:23:10.423Z,95.10
2019-01-24T17:25:46.070Z,95.20
2019-01-24T17:28:16.338Z,95.40
2019-01-24T17:30:46.239Z,95.60
2019-01-24T17:33:15.610Z,95.80
2019-01-24T17:35:47.013Z,95.70
2019-01-24T17:38:16.306Z,95.50
2019-01-24T17:40:47.793Z,95.60
2019-01-24T17:43:17.099Z,95.90
2019-01-24T17:45:46.675Z,95.50
2019-01-24T17:48:16.317Z,95.50
2019-01-24T17:50:45.652Z,95.60
2019-01-24T17:53:17.415Z,95.90
2019-01-24T17:55:47.170Z,95.90
2019-01-24T17:58:16.472Z,96.60
2019-01-24T18:00:51.696Z,96.50
2019-01-24T18:03:21.059Z,96.30
2019-01-24T18:05:50.449Z,96.50
2019-01-24T18:08:20.035Z,96.40
2019-01-24T18:10:49.699Z,95.90
2019-01-24T18:13:19.131Z,96.30
2019-01-24T18:15:48.454Z,96.20
2019-01-24T18:18:18.434Z,96.00
2019-01-24T18:20:47.819Z,95.80
2019-01-24T18:23:17.300Z,96.10
2019-01-24T18:25:46.939Z,96.00
2019-01-24T18:28:17.879Z,95.70
2019-01-24T18:30:47.351Z,95.80
2019-01-24T18:33:16.714Z,95.70
2019-01-24T18:35:46.129Z,95.50
2019-01-24T18:38:15.843Z,96.30
2019-01-24T18:40:45.137Z,96.10
2019-01-24T18:43:23.801Z,95.40
2019-01-24T18:45:54.751Z,95.10
2019-01-24T18:48:24.065Z,95.40
2019-01-24T18:50:53.498Z,96.00
2019-01-24T18:53:23.005Z,95.90
2019-01-24T18:55:52.539Z,95.70
2019-01-24T18:58:22.212Z,95.30
2019-01-24T19:00:51.796Z,95.60
2019-01-24T19:03:21.183Z,95.80
2019-01-24T19:05:50.760Z,96.00
2019-01-24T19:08:21.133Z,96.10
2019-01-24T19:10:50.756Z,96.40
2019-01-24T19:13:20.342Z,96.40
2019-01-24T19:15:50.756Z,96.30
2019-01-24T19:18:20.423Z,96.40
2019-01-24T19:20:49.836Z,96.50
2019-01-24T19:23:19.596Z,96.30
2019-01-24T19:25:49.287Z,96.60
2019-01-24T19:28:19.579Z,96.50
2019-01-24T19:30:49.337Z,96.40
2019-01-24T19:33:19.133Z,96.40
2019-01-24T19:35:48.395Z,96.30
2019-01-24T19:38:17.699Z,96.70
2019-01-24T19:40:46.983Z,96.50
2019-01-24T19:43:17.171Z,96.20
2019-01-24T19:45:46.443Z,96.40
2019-01-24T19:48:15.727Z,96.40
2019-01-24T19:50:45.484Z,96.50
2019-01-24T19:53:14.776Z,96.20
2019-01-24T19:55:44.394Z,96.20
2019-01-24T19:58:13.746Z,96.30
2019-01-24T20:00:43.314Z,96.80
2019-01-24T20:03:12.672Z,96.20
2019-01-24T20:05:41.959Z,96.00
2019-01-24T20:08:11.320Z,96.60
2019-01-24T20:10:41.283Z,96.00
2019-01-24T20:13:10.680Z,95.90
2019-01-24T20:15:40.068Z,96.10
2019-01-24T20:18:09.612Z,96.20
2019-01-24T20:20:39.184Z,96.10
2019-01-24T20:23:08.597Z,96.00
2019-01-24T20:25:37.976Z,96.10
2019-01-24T20:28:07.649Z,96.10
2019-01-24T20:30:36.993Z,96.30
2019-01-24T20:33:07.147Z,96.20
2019-01-24T20:35:45.525Z,96.40
2019-01-24T20:38:14.811Z,96.40
2019-01-24T20:40:44.374Z,96.40
2019-01-24T20:43:14.624Z,96.10
2019-01-24T20:45:43.902Z,96.00
2019-01-24T20:48:13.190Z,96.30
2019-01-24T20:50:42.499Z,96.20
2019-01-24T20:53:12.115Z,96.40
2019-01-24T20:55:41.455Z,96.40
2019-01-24T20:58:10.739Z,96.30
2019-01-24T21:00:40.062Z,96.30
2019-01-24T21:03:09.331Z,96.30
2019-01-24T21:05:38.613Z,96.20
2019-01-24T21:08:08.083Z,96.10
2019-01-24T21:10:37.359Z,95.80
2019-01-24T21:13:07.029Z,96.10
2019-01-24T21:15:36.623Z,96.20
2019-01-24T21:18:06.146Z,96.40
2019-01-24T21:20:35.467Z,96.20
2019-01-24T21:23:05.200Z,96.30
2019-01-24T21:25:34.742Z,96.40
2019-01-24T21:28:04.223Z,96.60
2019-01-24T21:30:35.666Z,96.40
2019-01-24T21:33:05.432Z,96.40
2019-01-24T21:35:34.999Z,96.80
2019-01-24T21:38:05.194Z,96.00
2019-01-24T21:40:34.895Z,96.20
2019-01-24T21:43:09.019Z,96.10
2019-01-24T21:45:38.985Z,96.00
2019-01-24T21:48:08.752Z,95.80
2019-01-24T21:50:38.396Z,96.00
2019-01-24T21:53:07.942Z,96.20
2019-01-24T21:55:37.582Z,96.20
2019-01-24T21:58:08.451Z,96.20
2019-01-24T22:00:37.918Z,95.90
2019-01-24T22:03:07.268Z,95.90
2019-01-24T22:05:36.743Z,95.80
2019-01-24T22:08:07.535Z,95.90
2019-01-24T22:10:36.906Z,95.70
2019-01-24T22:13:06.570Z,95.60
2019-01-24T22:15:36.160Z,95.80
2019-01-24T22:18:06.287Z,96.00
2019-01-24T22:20:35.574Z,95.80
2019-01-24T22:23:05.101Z,95.80
2019-01-24T22:25:35.979Z,95.80
2019-01-24T22:28:06.231Z,95.80
2019-01-24T22:30:49.834Z,95.60
2019-01-24T22:33:19.107Z,95.80
2019-01-24T22:35:49.739Z,95.70
2019-01-24T22:38:19.022Z,95.70
2019-01-24T22:40:48.912Z,95.70
2019-01-24T22:43:18.560Z,95.90
2019-01-24T22:45:48.195Z,96.00
2019-01-24T22:48:17.744Z,95.90
2019-01-24T22:50:47.122Z,96.00
2019-01-24T22:53:16.422Z,95.80
2019-01-24T22:55:46.017Z,95.50
2019-01-24T22:58:15.276Z,95.60
2019-01-24T23:01:06.459Z,95.80
2019-01-24T23:03:44.860Z,95.90
2019-01-24T23:06:14.253Z,95.40
2019-01-24T23:08:43.555Z,95.90
2019-01-24T23:11:12.902Z,95.60
2019-01-24T23:13:42.277Z,95.60
2019-01-24T23:16:11.811Z,95.50
2019-01-24T23:18:41.586Z,95.60
2019-01-24T23:21:10.872Z,95.50
2019-01-24T23:23:40.479Z,95.80
2019-01-24T23:26:10.035Z,95.60
2019-01-24T23:28:39.334Z,95.70
2019-01-24T23:31:09.076Z,95.70
2019-01-24T23:33:38.675Z,95.80
2019-01-24T23:36:08.152Z,95.80
2019-01-24T23:38:37.458Z,95.90
2019-01-24T23:41:06.768Z,95.90
2019-01-24T23:43:36.267Z,95.90
2019-01-24T23:46:05.901Z,95.80
2019-01-24T23:48:35.215Z,95.50
2019-01-24T23:51:04.684Z,95.40
2019-01-24T23:53:34.307Z,95.50
2019-01-24T23:56:03.601Z,95.80
2019-01-24T23:58:32.888Z,96.00
